createdAt,value
2022-12-19T00:01:17.565Z,84.00
2022-12-19T00:03:51.448Z,87.70
2022-12-19T00:06:24.226Z,81.80
2022-12-19T00:08:57.063Z,89.80
2022-12-19T00:11:30.750Z,82.20
2022-12-19T00:14:03.536Z,88.30
2022-12-19T00:16:35.848Z,82.30
2022-12-19T00:19:08.691Z,85.80
2022-12-19T00:21:41.066Z,79.40
2022-12-19T00:24:21.240Z,90.70
2022-12-19T00:26:54.007Z,82.70
2022-12-19T00:29:28.526Z,81.60
2022-12-19T00:32:00.637Z,80.20
2022-12-19T00:34:32.968Z,80.50
2022-12-19T00:37:07.389Z,83.50
2022-12-19T00:39:39.762Z,74.70
2022-12-19T00:42:12.237Z,84.90
2022-12-19T00:44:44.407Z,81.60
2022-12-19T00:47:16.471Z,81.10
2022-12-19T00:49:48.497Z,87.20
2022-12-19T00:52:22.346Z,79.30
2022-12-19T00:54:55.754Z,81.60
2022-12-19T00:57:28.015Z,85.30
2022-12-19T01:00:00.650Z,79.70
2022-12-19T01:02:32.892Z,80.00
2022-12-19T01:05:05.647Z,78.40
2022-12-19T01:07:38.764Z,80.10
2022-12-19T01:10:12.442Z,80.30
2022-12-19T01:12:47.620Z,81.10
2022-12-19T01:15:21.971Z,78.70
2022-12-19T01:17:54.174Z,83.60
2022-12-19T01:20:29.242Z,79.40
2022-12-19T01:23:02.719Z,78.00
2022-12-19T01:25:35.662Z,78.10
2022-12-19T01:28:13.390Z,79.60
2022-12-19T01:30:47.403Z,84.90
2022-12-19T01:33:20.988Z,80.10
2022-12-19T01:35:53.381Z,78.90
2022-12-19T01:38:25.446Z,74.60
2022-12-19T01:40:59.252Z,73.80
2022-12-19T01:43:49.137Z,75.20
2022-12-19T01:46:25.968Z,77.80
2022-12-19T01:49:01.674Z,79.40
2022-12-19T01:51:41.106Z,75.70
2022-12-19T01:54:17.109Z,79.30
2022-12-19T01:56:53.188Z,75.70
2022-12-19T01:59:37.958Z,78.70
2022-12-19T02:02:16.313Z,77.30
2022-12-19T02:04:49.234Z,76.20
2022-12-19T02:07:24.811Z,75.50
2022-12-19T02:10:00.592Z,75.00
2022-12-19T02:12:43.176Z,76.20
2022-12-19T02:15:17.494Z,72.70
2022-12-19T02:18:12.705Z,75.20
2022-12-19T02:21:33.619Z,74.80
2022-12-19T02:24:26.005Z,69.70
2022-12-19T02:27:07.557Z,73.50
2022-12-19T02:32:41.410Z,70.70
2022-12-19T02:35:22.985Z,72.90
2022-12-19T02:38:05.454Z,71.50
2022-12-19T02:40:46.393Z,73.00
2022-12-19T02:43:24.677Z,69.40
2022-12-19T02:46:01.048Z,73.90
2022-12-19T02:48:34.398Z,72.60
2022-12-19T02:51:07.126Z,76.20
2022-12-19T02:53:41.338Z,75.80
2022-12-19T02:56:39.969Z,78.50
2022-12-19T02:59:30.334Z,70.90
2022-12-19T03:02:12.004Z,73.10
2022-12-19T03:04:52.080Z,70.30
2022-12-19T03:07:33.679Z,71.40
2022-12-19T03:12:48.361Z,67.20
2022-12-19T03:15:21.995Z,69.00
2022-12-19T03:17:57.540Z,69.90
2022-12-19T03:20:40.937Z,67.30
2022-12-19T03:23:13.557Z,70.30
2022-12-19T03:25:49.802Z,73.80
2022-12-19T03:28:28.304Z,69.60
2022-12-19T03:31:02.971Z,72.10
2022-12-19T03:33:36.334Z,69.50
2022-12-19T03:36:13.020Z,71.00
2022-12-19T03:38:47.478Z,65.00
2022-12-19T03:41:43.145Z,68.90
2022-12-19T03:44:19.340Z,64.50
2022-12-19T03:46:59.260Z,70.70
2022-12-19T03:49:31.841Z,68.00
2022-12-19T03:52:12.610Z,68.50
2022-12-19T03:54:50.355Z,63.40
2022-12-19T03:57:27.086Z,63.80
2022-12-19T04:00:03.522Z,66.70
2022-12-19T04:02:49.322Z,67.00
2022-12-19T04:05:24.737Z,65.60
2022-12-19T04:10:30.188Z,61.00
2022-12-19T04:13:06.771Z,60.30
2022-12-19T04:15:51.231Z,58.20
2022-12-19T04:18:24.343Z,60.40
2022-12-19T04:21:05.042Z,66.70
2022-12-19T04:23:41.242Z,62.90
2022-12-19T04:26:15.012Z,60.20
2022-12-19T04:28:52.411Z,61.40
2022-12-19T04:31:25.508Z,65.70
2022-12-19T04:33:57.661Z,65.00
2022-12-19T04:36:29.829Z,61.60
2022-12-19T04:39:01.896Z,62.70
2022-12-19T04:41:33.916Z,65.40
2022-12-19T04:44:06.565Z,63.70
2022-12-19T04:46:38.661Z,58.40
2022-12-19T04:49:10.781Z,61.20
2022-12-19T04:51:42.841Z,60.60
2022-12-19T04:54:14.907Z,59.40
2022-12-19T04:56:46.976Z,57.50
2022-12-19T04:59:18.938Z,60.20
2022-12-19T05:01:51.064Z,58.50
2022-12-19T05:04:23.481Z,58.40
2022-12-19T05:06:55.548Z,61.90
2022-12-19T05:09:27.713Z,61.30
2022-12-19T05:11:59.778Z,56.70
2022-12-19T05:14:33.495Z,53.80
2022-12-19T05:17:05.554Z,57.30
2022-12-19T05:19:37.535Z,59.30
2022-12-19T05:22:09.468Z,52.60
2022-12-19T05:24:41.546Z,58.20
2022-12-19T05:27:13.615Z,57.60
2022-12-19T05:29:45.783Z,56.90
2022-12-19T05:32:17.976Z,55.50
2022-12-19T05:34:50.018Z,55.00
2022-12-19T05:37:22.079Z,58.00
2022-12-19T05:39:54.145Z,58.60
2022-12-19T05:42:27.956Z,58.50
2022-12-19T05:45:00.039Z,57.30
2022-12-19T05:47:32.404Z,56.80
2022-12-19T05:50:05.807Z,55.00
2022-12-19T05:52:37.867Z,57.20
2022-12-19T05:55:11.739Z,54.80
2022-12-19T05:57:43.707Z,52.80
2022-12-19T06:00:17.747Z,55.30
2022-12-19T06:02:52.848Z,55.60
2022-12-19T06:05:25.309Z,54.60
2022-12-19T06:07:57.521Z,56.30
2022-12-19T06:10:29.589Z,55.90
2022-12-19T06:13:02.887Z,52.90
2022-12-19T06:15:34.952Z,55.30
2022-12-19T06:18:07.128Z,55.90
2022-12-19T06:20:39.491Z,51.50
2022-12-19T06:23:12.273Z,54.20
2022-12-19T06:25:44.443Z,54.10
2022-12-19T06:28:17.131Z,54.50
2022-12-19T06:30:49.127Z,50.80
2022-12-19T06:33:21.195Z,52.40
2022-12-19T06:36:01.003Z,54.30
2022-12-19T06:38:34.298Z,53.60
2022-12-19T06:41:25.206Z,52.80
2022-12-19T06:44:00.897Z,51.60
2022-12-19T06:46:34.346Z,54.20
2022-12-19T06:49:07.392Z,51.20
2022-12-19T06:51:46.222Z,53.40
2022-12-19T06:54:18.854Z,54.80
2022-12-19T06:56:51.223Z,52.00
2022-12-19T06:59:23.491Z,56.30
2022-12-19T07:02:06.210Z,54.10
2022-12-19T07:04:43.290Z,52.20
2022-12-19T07:07:16.074Z,52.90
2022-12-19T07:09:48.140Z,53.60
2022-12-19T07:12:20.204Z,50.40
2022-12-19T07:14:53.702Z,50.40
2022-12-19T07:17:28.068Z,51.40
2022-12-19T07:20:01.064Z,51.60
2022-12-19T07:22:36.411Z,53.50
2022-12-19T07:25:10.379Z,53.10
2022-12-19T07:27:42.433Z,51.90
2022-12-19T07:30:15.907Z,51.80
2022-12-19T07:32:48.114Z,50.90
2022-12-19T07:35:23.555Z,54.50
2022-12-19T07:37:55.610Z,48.30
2022-12-19T07:40:27.991Z,70.00
2022-12-19T07:43:04.409Z,77.50
2022-12-19T07:45:39.436Z,64.10
2022-12-19T07:48:11.785Z,66.00
2022-12-19T07:50:46.002Z,67.60
2022-12-19T07:53:28.973Z,67.70
2022-12-19T07:56:04.651Z,64.70
2022-12-19T07:58:37.947Z,62.30
2022-12-19T08:01:10.482Z,64.40
2022-12-19T08:03:43.618Z,70.20
2022-12-19T08:06:15.682Z,74.30
2022-12-19T08:08:47.752Z,77.90
2022-12-19T08:11:26.863Z,79.70
2022-12-19T08:13:59.603Z,73.80
2022-12-19T08:16:37.300Z,70.10
2022-12-19T08:19:16.391Z,69.70
2022-12-19T08:21:48.499Z,65.30
2022-12-19T08:24:20.522Z,63.80
2022-12-19T08:26:53.002Z,69.70
2022-12-19T08:29:25.678Z,66.30
2022-12-19T08:31:57.772Z,66.50
2022-12-19T08:34:29.913Z,63.90
2022-12-19T08:37:01.989Z,64.40
2022-12-19T08:39:33.987Z,62.20
2022-12-19T08:42:06.755Z,67.20
2022-12-19T08:44:39.002Z,60.30
2022-12-19T08:47:11.708Z,63.60
2022-12-19T08:49:44.124Z,64.10
2022-12-19T08:52:19.853Z,61.10
2022-12-19T08:54:53.932Z,61.00
2022-12-19T08:57:24.875Z,60.70
2022-12-19T08:59:57.059Z,64.30
2022-12-19T09:02:30.685Z,61.80
2022-12-19T09:06:01.831Z,60.30
2022-12-19T09:07:55.452Z,63.90
2022-12-19T09:10:31.345Z,76.10
2022-12-19T09:13:06.453Z,139.80
2022-12-19T09:15:38.749Z,120.50
2022-12-19T09:18:12.933Z,123.50
2022-12-19T09:20:45.105Z,107.70
2022-12-19T09:23:17.483Z,106.30
2022-12-19T09:25:49.745Z,103.70
2022-12-19T09:35:19.809Z,97.90
2022-12-19T09:40:00.803Z,91.80
2022-12-19T09:42:47.669Z,92.10
2022-12-19T09:45:34.019Z,88.00
2022-12-19T09:48:24.522Z,83.60
2022-12-19T09:51:10.341Z,80.20
2022-12-19T09:53:53.689Z,86.00
2022-12-19T09:56:33.944Z,81.10
2022-12-19T09:59:23.027Z,78.10
2022-12-19T10:02:04.055Z,79.60
2022-12-19T10:04:40.162Z,80.60
2022-12-19T10:07:33.144Z,76.40
2022-12-19T10:12:36.579Z,72.80
2022-12-19T10:13:14.165Z,68.10
2022-12-19T10:16:00.126Z,67.00
2022-12-19T10:18:52.681Z,71.50
2022-12-19T10:22:16.228Z,69.40
2022-12-19T10:25:09.508Z,68.70
2022-12-19T10:27:59.775Z,71.90
2022-12-19T10:30:39.989Z,65.20
2022-12-19T10:33:21.208Z,69.30
2022-12-19T10:36:03.197Z,59.40
2022-12-19T10:38:48.782Z,65.60
2022-12-19T10:41:42.291Z,61.20
2022-12-19T10:44:17.025Z,64.30
2022-12-19T10:46:51.006Z,62.60
2022-12-19T10:49:26.809Z,61.90
2022-12-19T10:52:05.506Z,62.10
2022-12-19T10:54:45.285Z,58.60
2022-12-19T10:57:27.396Z,59.40
2022-12-19T11:00:01.447Z,62.80
2022-12-19T11:02:42.029Z,60.60
2022-12-19T11:05:27.066Z,58.70
2022-12-19T11:08:17.008Z,59.50
2022-12-19T11:12:37.936Z,54.60
2022-12-19T11:19:32.268Z,55.70
2022-12-19T11:24:01.181Z,53.30
2022-12-19T11:28:32.364Z,53.90
2022-12-19T11:29:40.288Z,44.20
2022-12-19T11:30:05.168Z,50.70
2022-12-19T11:30:48.858Z,36.60
2022-12-19T11:34:24.832Z,30.50
2022-12-19T11:37:02.273Z,33.90
2022-12-19T11:39:43.142Z,35.00
2022-12-19T11:42:22.934Z,33.10
2022-12-19T11:45:02.123Z,32.80
2022-12-19T11:47:42.187Z,32.00
2022-12-19T11:50:19.865Z,33.60
2022-12-19T11:53:09.345Z,33.30
2022-12-19T11:55:48.473Z,31.20
2022-12-19T11:58:20.673Z,30.50
2022-12-19T12:01:01.840Z,31.20
2022-12-19T12:04:07.534Z,30.70
2022-12-19T12:06:50.478Z,27.70
2022-12-19T12:13:16.079Z,30.70
2022-12-19T12:20:01.587Z,27.80
2022-12-19T12:30:45.131Z,26.60
2022-12-19T12:31:07.646Z,27.40
2022-12-19T12:31:19.067Z,25.60
2022-12-19T12:32:02.749Z,24.40
2022-12-19T12:32:06.050Z,23.60
2022-12-19T12:35:07.037Z,22.30
2022-12-19T12:35:19.221Z,22.70
2022-12-19T12:40:15.373Z,23.70
2022-12-19T12:43:02.446Z,23.40
2022-12-19T12:45:40.448Z,21.30
2022-12-19T12:48:24.104Z,21.80
2022-12-19T12:51:00.586Z,20.40
2022-12-19T12:53:38.474Z,18.60
2022-12-19T12:56:14.624Z,19.10
2022-12-19T12:59:14.647Z,21.60
2022-12-19T13:01:53.634Z,19.80
2022-12-19T13:04:37.760Z,17.60
2022-12-19T13:07:30.810Z,16.50
2022-12-19T13:10:20.038Z,17.10
2022-12-19T13:13:01.648Z,16.90
2022-12-19T13:15:50.705Z,16.30
2022-12-19T13:18:39.361Z,17.10
2022-12-19T13:21:12.555Z,16.70
2022-12-19T13:23:52.202Z,16.50
2022-12-19T13:26:47.317Z,16.20
2022-12-19T13:30:08.180Z,17.30
2022-12-19T13:33:09.600Z,17.40
2022-12-19T13:37:17.696Z,14.90
2022-12-19T13:39:51.849Z,16.20
2022-12-19T13:42:01.551Z,15.70
2022-12-19T13:44:37.812Z,16.80
2022-12-19T13:47:23.913Z,16.30
2022-12-19T13:50:02.168Z,16.60
2022-12-19T13:52:34.386Z,16.40
2022-12-19T13:55:14.179Z,16.80
2022-12-19T13:57:53.290Z,15.50
2022-12-19T14:00:35.736Z,13.70
2022-12-19T14:03:17.466Z,15.90
2022-12-19T14:06:17.344Z,15.90
2022-12-19T14:08:46.150Z,14.30
2022-12-19T14:11:35.069Z,15.60
2022-12-19T14:17:13.885Z,13.40
2022-12-19T14:19:49.847Z,13.50
2022-12-19T14:22:26.864Z,13.60
2022-12-19T14:25:52.581Z,12.80
2022-12-19T14:28:28.120Z,14.40
2022-12-19T14:30:54.799Z,11.90
2022-12-19T14:33:44.501Z,11.00
2022-12-19T14:36:30.924Z,13.50
2022-12-19T14:39:24.999Z,12.80
2022-12-19T14:43:55.822Z,13.20
2022-12-19T14:51:51.543Z,13.90
2022-12-19T14:53:34.399Z,11.90
2022-12-19T14:54:26.485Z,13.10
2022-12-19T14:57:29.106Z,11.60
2022-12-19T15:01:10.960Z,12.60
2022-12-19T15:03:27.276Z,12.10
2022-12-19T15:06:32.211Z,11.20
2022-12-19T15:10:58.484Z,10.70
2022-12-19T15:14:47.962Z,11.90
2022-12-19T15:15:25.375Z,11.80
2022-12-19T15:17:58.359Z,11.00
2022-12-19T15:20:30.425Z,9.30
2022-12-19T15:23:02.497Z,13.60
2022-12-19T15:26:02.910Z,11.10
2022-12-19T15:28:35.706Z,9.90
2022-12-19T15:31:15.147Z,11.50
2022-12-19T15:34:23.245Z,13.80
2022-12-19T15:36:39.656Z,13.10
2022-12-19T15:39:18.603Z,13.30
2022-12-19T15:41:54.028Z,12.40
2022-12-19T15:44:32.651Z,12.80
2022-12-19T15:47:06.228Z,10.90
2022-12-19T15:49:38.422Z,11.80
2022-12-19T15:52:16.762Z,11.50
2022-12-19T15:54:50.494Z,13.20
2022-12-19T15:57:30.387Z,11.70
2022-12-19T16:00:04.269Z,9.70
2022-12-19T16:05:31.344Z,13.00
2022-12-19T16:08:05.302Z,11.10
2022-12-19T16:10:37.445Z,12.00
2022-12-19T16:13:16.269Z,11.00
2022-12-19T16:15:49.090Z,11.50
2022-12-19T16:18:21.430Z,10.10
2022-12-19T16:20:53.597Z,10.80
2022-12-19T16:23:26.890Z,10.60
2022-12-19T16:26:00.030Z,11.90
2022-12-19T16:28:34.922Z,11.20
2022-12-19T16:31:17.696Z,10.60
2022-12-19T16:33:49.697Z,8.50
2022-12-19T16:36:22.097Z,10.60
2022-12-19T16:38:54.239Z,10.20
2022-12-19T16:41:28.664Z,10.70
2022-12-19T16:44:02.062Z,9.90
2022-12-19T16:46:35.277Z,9.10
2022-12-19T16:49:16.373Z,9.10
2022-12-19T16:51:49.071Z,8.30
2022-12-19T16:54:22.056Z,9.90
2022-12-19T16:56:54.784Z,9.50
2022-12-19T16:59:32.185Z,11.00
2022-12-19T17:02:17.006Z,9.60
2022-12-19T17:04:53.978Z,7.90
2022-12-19T17:07:33.668Z,8.80
2022-12-19T17:10:06.676Z,9.90
2022-12-19T17:12:40.176Z,7.60
2022-12-19T17:15:24.128Z,9.40
2022-12-19T17:17:58.418Z,9.30
2022-12-19T17:20:37.441Z,9.50
2022-12-19T17:23:17.088Z,9.20
2022-12-19T17:25:49.361Z,9.70
2022-12-19T17:28:21.449Z,9.10
2022-12-19T17:30:57.618Z,9.50
2022-12-19T17:33:37.889Z,8.30
2022-12-19T17:36:18.441Z,10.00
2022-12-19T17:38:55.394Z,9.20
2022-12-19T17:41:28.946Z,8.90
2022-12-19T17:44:00.970Z,8.00
2022-12-19T17:46:34.649Z,8.50
2022-12-19T17:49:06.941Z,8.70
2022-12-19T17:51:39.104Z,7.60
2022-12-19T17:54:14.500Z,8.90
2022-12-19T17:56:46.613Z,7.80
2022-12-19T17:59:18.917Z,9.00
2022-12-19T18:01:51.338Z,8.00
2022-12-19T18:04:24.202Z,8.00
2022-12-19T18:06:56.418Z,8.50
2022-12-19T18:09:28.484Z,8.00
2022-12-19T18:12:00.551Z,8.40
2022-12-19T18:14:32.619Z,9.10
2022-12-19T18:17:05.399Z,7.90
2022-12-19T18:19:37.985Z,8.60
2022-12-19T18:22:15.783Z,8.80
2022-12-19T18:24:47.845Z,8.20
2022-12-19T18:27:19.913Z,9.50
2022-12-19T18:29:52.080Z,7.80
2022-12-19T18:32:25.136Z,7.70
2022-12-19T18:34:57.238Z,6.70
2022-12-19T18:37:29.231Z,7.30
2022-12-19T18:40:01.370Z,7.70
2022-12-19T18:42:33.847Z,8.00
2022-12-19T18:45:07.142Z,8.70
2022-12-19T18:47:39.741Z,7.00
2022-12-19T18:50:19.411Z,7.00
2022-12-19T18:52:52.165Z,7.90
2022-12-19T18:55:25.957Z,7.60
2022-12-19T18:57:58.531Z,7.30
2022-12-19T19:00:31.418Z,6.80
2022-12-19T19:03:07.014Z,7.40
2022-12-19T19:05:41.548Z,9.20
2022-12-19T19:08:19.720Z,8.10
2022-12-19T19:10:58.524Z,7.70
2022-12-19T19:13:31.719Z,7.00
2022-12-19T19:16:11.532Z,7.70
2022-12-19T19:18:45.066Z,6.60
2022-12-19T19:21:17.701Z,6.90
2022-12-19T19:23:54.932Z,7.20
2022-12-19T19:26:27.409Z,7.00
2022-12-19T19:28:59.477Z,7.80
2022-12-19T19:31:34.874Z,7.60
2022-12-19T19:34:12.517Z,8.10
2022-12-19T19:36:49.588Z,8.00
2022-12-19T19:39:23.029Z,8.10
2022-12-19T19:41:56.423Z,7.90
2022-12-19T19:44:30.037Z,7.60
2022-12-19T19:47:02.177Z,8.30
2022-12-19T19:49:34.233Z,7.70
2022-12-19T19:52:07.051Z,7.10
2022-12-19T19:54:39.394Z,8.10
2022-12-19T19:57:11.558Z,7.50
2022-12-19T19:59:43.659Z,7.50
2022-12-19T20:02:16.861Z,7.00
2022-12-19T20:04:49.295Z,9.00
2022-12-19T20:07:21.364Z,7.00
2022-12-19T20:09:53.353Z,6.80
2022-12-19T20:12:25.690Z,7.40
2022-12-19T20:14:57.767Z,7.60
2022-12-19T20:17:30.033Z,7.60
2022-12-19T20:20:02.113Z,7.70
2022-12-19T20:22:34.368Z,7.80
2022-12-19T20:25:07.088Z,6.70
2022-12-19T20:27:39.732Z,6.70
2022-12-19T20:30:13.849Z,7.70
2022-12-19T20:32:45.920Z,7.70
2022-12-19T20:35:18.188Z,7.00
2022-12-19T20:37:50.197Z,7.30
2022-12-19T20:40:22.634Z,8.10
2022-12-19T20:42:54.690Z,7.50
2022-12-19T20:45:26.772Z,7.20
2022-12-19T20:47:58.925Z,6.90
2022-12-19T20:50:30.992Z,7.30
2022-12-19T20:53:03.057Z,7.70
2022-12-19T20:55:35.128Z,7.20
2022-12-19T20:58:07.303Z,6.70
2022-12-19T21:00:39.358Z,7.50
2022-12-19T21:03:28.823Z,7.70
2022-12-19T21:06:02.128Z,6.30
2022-12-19T21:08:35.188Z,6.90
2022-12-19T21:11:09.265Z,5.80
2022-12-19T21:13:42.319Z,6.20
2022-12-19T21:16:17.886Z,6.50
2022-12-19T21:21:27.323Z,6.30
2022-12-19T21:24:01.572Z,6.90
2022-12-19T21:26:34.244Z,6.90
2022-12-19T21:29:06.394Z,6.80
2022-12-19T21:31:38.607Z,6.30
2022-12-19T21:34:11.107Z,7.30
2022-12-19T21:36:43.207Z,6.60
2022-12-19T21:39:15.271Z,6.50
2022-12-19T21:41:47.354Z,6.90
2022-12-19T21:44:19.710Z,6.50
2022-12-19T21:46:51.710Z,6.70
2022-12-19T21:49:23.947Z,6.20
2022-12-19T21:51:56.016Z,6.40
2022-12-19T21:54:28.076Z,6.00
2022-12-19T21:57:00.152Z,6.90
2022-12-19T21:59:32.315Z,6.50
2022-12-19T22:02:04.707Z,6.90
2022-12-19T22:04:36.903Z,7.10
2022-12-19T22:07:09.127Z,6.30
2022-12-19T22:09:41.193Z,6.40
2022-12-19T22:12:14.285Z,6.90
2022-12-19T22:14:47.443Z,7.40
2022-12-19T22:17:19.459Z,6.60
2022-12-19T22:19:51.447Z,6.60
2022-12-19T22:22:23.472Z,7.10
2022-12-19T22:24:55.538Z,6.60
2022-12-19T22:27:27.706Z,7.90
2022-12-19T22:30:06.852Z,7.60
2022-12-19T22:32:43.007Z,7.00
2022-12-19T22:35:15.167Z,6.80
2022-12-19T22:37:47.437Z,6.80
2022-12-19T22:40:20.071Z,6.70
2022-12-19T22:42:52.910Z,7.00
2022-12-19T22:45:25.173Z,6.10
2022-12-19T22:47:57.159Z,6.80
2022-12-19T22:50:29.436Z,6.80
2022-12-19T22:53:01.480Z,7.70
2022-12-19T22:55:33.544Z,7.10
2022-12-19T22:58:05.506Z,6.30
2022-12-19T23:00:37.893Z,7.80
2022-12-19T23:03:10.104Z,6.70
2022-12-19T23:05:46.954Z,7.80
2022-12-19T23:08:22.709Z,6.90
2022-12-19T23:10:55.780Z,6.90
2022-12-19T23:13:28.474Z,7.50
2022-12-19T23:16:00.855Z,6.50
2022-12-19T23:18:33.108Z,6.90
2022-12-19T23:21:11.209Z,6.80
2022-12-19T23:23:45.232Z,5.90
2022-12-19T23:26:19.569Z,7.00
2022-12-19T23:28:55.641Z,9.00
2022-12-19T23:31:28.884Z,7.30
2022-12-19T23:34:01.985Z,5.90
2022-12-19T23:39:26.515Z,6.90
2022-12-19T23:41:58.663Z,6.30
2022-12-19T23:44:31.338Z,7.20
2022-12-19T23:47:04.194Z,6.40
2022-12-19T23:49:36.815Z,6.50
2022-12-19T23:52:09.205Z,7.20
2022-12-19T23:54:41.249Z,6.40
2022-12-19T23:57:13.419Z,6.20
2022-12-19T23:59:45.399Z,6.70
